Time;durP1;ratioP1;P1;durP2;ratioP2;P2;SDS_P1;SDS_P2;PMS_P1;PMS_P2;Temp;Humidity;BMP_temperature;BMP_pressure;BME280_temperature;BME280_humidity;BME280_pressure;Samples;Min_cycle;Max_cycle;Signal;HPM_P1;HPM_P2
2022/05/20 00:03:41;;;;;;;11.32;4.65;;;;;;;;;;10459764;28;20054;-67
2022/05/20 00:08:44;;;;;;;8.43;4.20;;;;;;;;;;10401607;28;20043;-67
2022/05/20 00:13:48;;;;;;;8.25;4.88;;;;;;;;;;10462152;28;20072;-67
2022/05/20 00:18:50;;;;;;;12.32;4.03;;;;;;;;;;10425216;28;20046;-66
2022/05/20 00:23:52;;;;;;;9.23;4.68;;;;;;;;;;10394845;28;20057;-67
2022/05/20 00:28:56;;;;;;;10.27;4.65;;;;;;;;;;10433576;28;20363;-67
2022/05/20 00:33:58;;;;;;;13.30;4.37;;;;;;;;;;10447622;28;20085;-67
2022/05/20 00:39:00;;;;;;;12.02;4.57;;;;;;;;;;10393275;28;20221;-67
2022/05/20 00:44:04;;;;;;;11.55;4.90;;;;;;;;;;10398902;28;20148;-67
2022/05/20 00:49:11;;;;;;;8.88;4.68;;;;;;;;;;10390192;28;20109;-67
2022/05/20 00:54:17;;;;;;;10.70;4.78;;;;;;;;;;10397607;28;20234;-68
2022/05/20 00:59:25;;;;;;;10.70;4.25;;;;;;;;;;10462089;28;20048;-67
2022/05/20 01:04:30;;;;;;;10.48;5.25;;;;;;;;;;10454924;28;20073;-67
2022/05/20 01:09:33;;;;;;;8.75;4.28;;;;;;;;;;10439684;28;20049;-67
2022/05/20 01:14:37;;;;;;;10.52;4.43;;;;;;;;;;10436563;28;20092;-67
2022/05/20 01:19:45;;;;;;;6.50;4.40;;;;;;;;;;10404922;28;20050;-66
2022/05/20 01:24:48;;;;;;;11.25;4.57;;;;;;;;;;10421195;28;20609;-67
2022/05/20 01:29:51;;;;;;;9.27;4.40;;;;;;;;;;10443023;28;20069;-67
2022/05/20 01:34:53;;;;;;;8.80;5.03;;;;;;;;;;10404988;28;20053;-67
2022/05/20 01:39:59;;;;;;;8.15;4.25;;;;;;;;;;10435562;28;20100;-67
2022/05/20 01:45:06;;;;;;;18.30;4.85;;;;;;;;;;10451905;28;20091;-67
2022/05/20 01:50:15;;;;;;;9.70;4.93;;;;;;;;;;10457672;28;20116;-67
2022/05/20 01:55:24;;;;;;;9.52;4.55;;;;;;;;;;10409155;28;20349;-67
2022/05/20 02:00:32;;;;;;;10.75;5.10;;;;;;;;;;10472549;28;20095;-68
2022/05/20 02:05:41;;;;;;;8.80;4.97;;;;;;;;;;10425397;28;20054;-66
2022/05/20 02:10:51;;;;;;;9.65;4.50;;;;;;;;;;10412587;28;20037;-67
2022/05/20 02:15:59;;;;;;;6.88;4.07;;;;;;;;;;10407085;28;20281;-67
2022/05/20 02:21:06;;;;;;;9.48;4.28;;;;;;;;;;10408061;28;20054;-66
2022/05/20 02:26:13;;;;;;;11.55;5.20;;;;;;;;;;10412985;28;20240;-68
2022/05/20 02:31:20;;;;;;;9.63;4.50;;;;;;;;;;10428334;28;20080;-67
2022/05/20 02:36:25;;;;;;;9.02;4.38;;;;;;;;;;10434995;28;20092;-67
2022/05/20 02:41:29;;;;;;;10.48;5.00;;;;;;;;;;10457255;28;20076;-67
2022/05/20 02:46:32;;;;;;;8.97;4.37;;;;;;;;;;10471295;28;20352;-66
2022/05/20 02:51:35;;;;;;;8.80;4.30;;;;;;;;;;10427409;28;20037;-66
2022/05/20 02:56:39;;;;;;;9.93;4.25;;;;;;;;;;10450521;28;20356;-66
2022/05/20 03:07:03;;;;;;;12.70;4.22;;;;;;;;;;10419104;28;20058;-67
2022/05/20 03:12:08;;;;;;;8.32;4.22;;;;;;;;;;10437745;28;20065;-67
2022/05/20 03:17:10;;;;;;;9.25;4.43;;;;;;;;;;10459174;28;20333;-67
2022/05/20 03:22:12;;;;;;;9.73;4.10;;;;;;;;;;10419312;28;20068;-67
2022/05/20 03:27:17;;;;;;;6.90;3.65;;;;;;;;;;10396498;28;20069;-67
2022/05/20 03:32:19;;;;;;;7.90;3.70;;;;;;;;;;10451649;28;20340;-67
2022/05/20 03:37:21;;;;;;;4.90;4.00;;;;;;;;;;10424776;28;20053;-67
2022/05/20 03:42:26;;;;;;;12.98;4.10;;;;;;;;;;10434376;28;20336;-67
2022/05/20 03:47:28;;;;;;;7.75;3.63;;;;;;;;;;10465139;28;20048;-66
2022/05/20 03:52:31;;;;;;;4.25;3.47;;;;;;;;;;10440934;28;20042;-66
2022/05/20 03:57:34;;;;;;;9.60;3.72;;;;;;;;;;10405490;28;20049;-67
2022/05/20 04:02:37;;;;;;;11.10;4.38;;;;;;;;;;10445876;28;20230;-67
2022/05/20 04:07:40;;;;;;;13.43;4.00;;;;;;;;;;10430587;28;20038;-67
2022/05/20 04:12:43;;;;;;;7.00;3.95;;;;;;;;;;10449324;28;20068;-67
2022/05/20 04:17:46;;;;;;;12.60;4.20;;;;;;;;;;10456854;28;20355;-67
2022/05/20 04:22:48;;;;;;;10.90;5.47;;;;;;;;;;10421445;28;20069;-67
2022/05/20 04:27:51;;;;;;;13.00;4.55;;;;;;;;;;10404135;28;20042;-67
2022/05/20 04:32:54;;;;;;;13.60;3.83;;;;;;;;;;10430375;28;20097;-68
2022/05/20 04:37:56;;;;;;;10.30;4.60;;;;;;;;;;10399133;28;20281;-69
2022/05/20 04:48:20;;;;;;;13.25;5.20;;;;;;;;;;10484834;28;20045;-70
2022/05/20 04:58:39;;;;;;;9.57;4.40;;;;;;;;;;10436142;28;20068;-67
2022/05/20 05:03:42;;;;;;;11.15;4.32;;;;;;;;;;10435306;28;20356;-69
2022/05/20 05:08:44;;;;;;;9.35;4.20;;;;;;;;;;10435122;28;20061;-70
2022/05/20 05:13:48;;;;;;;14.57;3.83;;;;;;;;;;10434285;28;20111;-71
2022/05/20 05:18:50;;;;;;;12.43;4.00;;;;;;;;;;10411932;28;20089;-68
2022/05/20 05:23:53;;;;;;;12.35;4.30;;;;;;;;;;10441611;28;20079;-69
2022/05/20 05:28:57;;;;;;;11.68;3.45;;;;;;;;;;10477948;28;20065;-69
2022/05/20 05:34:00;;;;;;;8.45;3.75;;;;;;;;;;10445722;28;20049;-70
2022/05/20 05:39:02;;;;;;;5.95;3.50;;;;;;;;;;10431171;28;20054;-68
2022/05/20 05:44:06;;;;;;;29.40;5.63;;;;;;;;;;10440423;28;20108;-68
2022/05/20 05:49:09;;;;;;;11.05;5.38;;;;;;;;;;10395371;28;20049;-69
2022/05/20 05:54:11;;;;;;;11.48;4.22;;;;;;;;;;10437182;28;20048;-69
2022/05/20 05:59:15;;;;;;;7.15;3.90;;;;;;;;;;10451505;28;20049;-68
2022/05/20 06:04:18;;;;;;;8.73;4.30;;;;;;;;;;10441486;28;20095;-69
2022/05/20 06:09:20;;;;;;;6.30;2.70;;;;;;;;;;10394791;28;20049;-69
2022/05/20 06:14:24;;;;;;;6.18;2.60;;;;;;;;;;10426132;28;20053;-69
2022/05/20 06:19:26;;;;;;;11.95;2.53;;;;;;;;;;10477077;28;20040;-69
2022/05/20 06:24:28;;;;;;;5.25;2.50;;;;;;;;;;10419183;28;20044;-69
2022/05/20 06:29:32;;;;;;;10.38;2.88;;;;;;;;;;10442242;28;20061;-69
2022/05/20 06:39:51;;;;;;;12.65;3.45;;;;;;;;;;10442619;28;20344;-70
2022/05/20 06:44:54;;;;;;;1.60;1.60;;;;;;;;;;10474275;28;20240;-69
2022/05/20 06:49:57;;;;;;;2.28;2.28;;;;;;;;;;10444730;28;20059;-69
2022/05/20 06:54:59;;;;;;;3.35;3.25;;;;;;;;;;10458264;28;20052;-68
2022/05/20 07:00:06;;;;;;;4.50;4.40;;;;;;;;;;10440560;28;20065;-69
2022/05/20 07:05:09;;;;;;;5.85;5.65;;;;;;;;;;10426764;28;20068;-69
2022/05/20 07:10:13;;;;;;;6.78;6.57;;;;;;;;;;10440482;28;20171;-69
2022/05/20 07:15:17;;;;;;;9.00;8.65;;;;;;;;;;10445493;28;20049;-69
2022/05/20 07:20:19;;;;;;;11.48;10.98;;;;;;;;;;10408292;28;20108;-70
2022/05/20 07:25:21;;;;;;;1.95;1.95;;;;;;;;;;10417906;28;20053;-70
2022/05/20 07:30:25;;;;;;;3.13;3.03;;;;;;;;;;10431609;28;20111;-70
2022/05/20 07:35:27;;;;;;;6.32;6.13;;;;;;;;;;10447788;28;20052;-71
2022/05/20 07:40:30;;;;;;;9.70;9.30;;;;;;;;;;10471793;28;20099;-69
2022/05/20 07:45:33;;;;;;;13.90;13.30;;;;;;;;;;10422253;28;20052;-69
2022/05/20 07:50:43;;;;;;;13.35;12.75;;;;;;;;;;10432660;28;20069;-70
2022/05/20 07:55:49;;;;;;;7.90;7.60;;;;;;;;;;10460892;28;20053;-70
2022/05/20 08:00:54;;;;;;;10.27;9.88;;;;;;;;;;10436577;28;20057;-69
2022/05/20 08:05:58;;;;;;;11.40;10.90;;;;;;;;;;10453212;28;20338;-69
2022/05/20 08:11:00;;;;;;;22.25;21.15;;;;;;;;;;10431641;28;20041;-69
2022/05/20 08:16:04;;;;;;;31.73;30.02;;;;;;;;;;10431136;28;20072;-70
2022/05/20 08:21:07;;;;;;;38.08;35.97;;;;;;;;;;10441539;28;20062;-70
2022/05/20 08:26:09;;;;;;;44.97;42.38;;;;;;;;;;10407350;28;20083;-69
2022/05/20 08:31:12;;;;;;;49.72;46.78;;;;;;;;;;10456884;28;20049;-69
2022/05/20 08:36:16;;;;;;;55.03;51.70;;;;;;;;;;10438997;28;20049;-69
2022/05/20 08:41:23;;;;;;;55.25;51.90;;;;;;;;;;10442568;28;20266;-69
2022/05/20 08:46:28;;;;;;;59.97;56.28;;;;;;;;;;10417179;28;20049;-69
2022/05/20 08:51:33;;;;;;;64.17;60.17;;;;;;;;;;10442253;28;20049;-70
2022/05/20 08:56:37;;;;;;;66.25;62.05;;;;;;;;;;10409586;28;20221;-68
2022/05/20 09:01:44;;;;;;;67.67;63.37;;;;;;;;;;10417149;28;20069;-70
2022/05/20 09:06:59;;;;;;;61.63;57.80;;;;;;;;;;10423432;28;20053;-69
2022/05/20 09:12:01;;;;;;;46.45;43.75;;;;;;;;;;10451148;28;20049;-69
2022/05/20 09:17:11;;;;;;;36.08;34.08;;;;;;;;;;10431607;28;20042;-68
2022/05/20 09:22:15;;;;;;;3.22;3.13;;;;;;;;;;10476504;28;20087;-69
2022/05/20 09:27:21;;;;;;;2.00;2.00;;;;;;;;;;10474532;28;20052;-67
2022/05/20 09:32:29;;;;;;;0.10;0.10;;;;;;;;;;10461022;28;20287;-68
2022/05/20 09:37:33;;;;;;;0.30;0.30;;;;;;;;;;10451846;28;20260;-69
2022/05/20 09:42:35;;;;;;;0.00;0.00;;;;;;;;;;10436372;28;20057;-67
2022/05/20 09:47:50;;;;;;;16.98;3.40;;;;;;;;;;10465629;28;20218;-68
2022/05/20 09:52:55;;;;;;;11.20;2.92;;;;;;;;;;10482782;28;20053;-68
2022/05/20 09:58:12;;;;;;;10.38;3.03;;;;;;;;;;10446818;28;20045;-70
2022/05/20 10:03:25;;;;;;;16.85;3.95;;;;;;;;;;10438429;28;20364;-68
2022/05/20 10:08:31;;;;;;;20.55;3.78;;;;;;;;;;10477498;28;20053;-68
2022/05/20 10:13:54;;;;;;;11.82;3.13;;;;;;;;;;10471447;28;20046;-71
2022/05/20 10:19:08;;;;;;;9.73;3.05;;;;;;;;;;10459127;28;20060;-68
2022/05/20 10:24:32;;;;;;;7.82;2.90;;;;;;;;;;10482126;28;20041;-69
2022/05/20 10:35:07;;;;;;;13.73;3.70;;;;;;;;;;10448842;28;20041;-71
2022/05/20 10:40:34;;;;;;;13.38;3.10;;;;;;;;;;10459955;28;20040;-72
2022/05/20 10:51:16;;;;;;;2.90;2.50;;;;;;;;;;10456662;28;20038;-71
2022/05/20 10:56:41;;;;;;;21.77;3.53;;;;;;;;;;10446220;28;20057;-72
2022/05/20 11:01:54;;;;;;;8.02;2.88;;;;;;;;;;10430313;28;20111;-71
2022/05/20 11:07:31;;;;;;;6.00;2.85;;;;;;;;;;10445290;28;20053;-71
2022/05/20 11:12:43;;;;;;;5.65;2.63;;;;;;;;;;10444389;28;20045;-71
2022/05/20 11:18:07;;;;;;;9.82;2.20;;;;;;;;;;10447580;28;20060;-72
2022/05/20 11:23:28;;;;;;;7.93;2.88;;;;;;;;;;10430292;28;20281;-72
2022/05/20 11:28:46;;;;;;;6.45;2.47;;;;;;;;;;10459233;28;20053;-72
2022/05/20 11:34:00;;;;;;;3.25;2.20;;;;;;;;;;10444861;28;20079;-71
2022/05/20 11:39:31;;;;;;;8.25;2.83;;;;;;;;;;10442389;28;20048;-69
2022/05/20 11:44:52;;;;;;;6.05;2.70;;;;;;;;;;10446800;28;20083;-72
2022/05/20 11:50:09;;;;;;;3.80;2.33;;;;;;;;;;10437655;28;20049;-73
2022/05/20 11:55:19;;;;;;;7.63;3.03;;;;;;;;;;10425746;28;20334;-70
2022/05/20 12:00:23;;;;;;;4.97;2.40;;;;;;;;;;10436903;28;20382;-71
2022/05/20 12:05:29;;;;;;;14.40;2.88;;;;;;;;;;10454892;28;20041;-71
2022/05/20 12:10:49;;;;;;;5.85;2.67;;;;;;;;;;10390904;28;20058;-73
2022/05/20 12:16:12;;;;;;;8.18;2.45;;;;;;;;;;10435808;28;20267;-71
2022/05/20 12:27:01;;;;;;;7.93;2.50;;;;;;;;;;10445057;28;20057;-72
2022/05/20 12:32:31;;;;;;;10.32;3.33;;;;;;;;;;10428693;28;20042;-72
2022/05/20 12:37:53;;;;;;;4.50;2.10;;;;;;;;;;10443678;28;20224;-74
2022/05/20 12:43:01;;;;;;;12.50;2.80;;;;;;;;;;10442066;28;20048;-72
2022/05/20 12:48:04;;;;;;;12.93;3.08;;;;;;;;;;10427277;28;20083;-70
2022/05/20 12:53:07;;;;;;;;;;;;;;;;;;10428218;28;20057;-71
2022/05/20 12:58:15;;;;;;;11.73;2.42;;;;;;;;;;10437124;28;19917;-70
2022/05/20 13:03:22;;;;;;;3.40;2.30;;;;;;;;;;10437722;28;20316;-71
2022/05/20 13:08:28;;;;;;;6.10;2.67;;;;;;;;;;10452074;28;20099;-70
2022/05/20 13:13:32;;;;;;;6.97;2.45;;;;;;;;;;10436181;28;20041;-71
2022/05/20 13:18:39;;;;;;;13.00;2.72;;;;;;;;;;10411587;28;20064;-71
2022/05/20 13:23:41;;;;;;;5.18;2.40;;;;;;;;;;10436638;28;20033;-74
2022/05/20 13:28:45;;;;;;;3.37;2.47;;;;;;;;;;10433558;28;20065;-71
2022/05/20 13:33:47;;;;;;;6.93;3.30;;;;;;;;;;10437628;28;20348;-71
2022/05/20 13:38:54;;;;;;;8.30;2.83;;;;;;;;;;10408532;28;20049;-73
2022/05/20 13:44:02;;;;;;;3.47;2.20;;;;;;;;;;10434720;28;20045;-73
2022/05/20 13:49:16;;;;;;;4.38;2.08;;;;;;;;;;10430880;28;20080;-73
2022/05/20 13:54:20;;;;;;;19.55;3.05;;;;;;;;;;10406121;28;20046;-71
2022/05/20 13:59:35;;;;;;;8.85;2.70;;;;;;;;;;11750623;22;20053;-71
2022/05/20 14:09:52;;;;;;;10.02;2.65;;;;;;;;;;10907880;22;20056;-72
2022/05/20 14:15:00;;;;;;;20.40;2.97;;;;;;;;;;10532571;28;20364;-71
2022/05/20 14:20:09;;;;;;;8.30;2.05;;;;;;;;;;10524335;28;20052;-71
2022/05/20 14:25:19;;;;;;;4.85;2.50;;;;;;;;;;10512093;28;20358;-70
2022/05/20 14:30:30;;;;;;;7.72;3.00;;;;;;;;;;10533968;28;20323;-71
2022/05/20 14:35:40;;;;;;;4.20;2.50;;;;;;;;;;10533001;28;20047;-70
2022/05/20 14:40:42;;;;;;;12.52;4.20;;;;;;;;;;10530023;28;20060;-71
2022/05/20 14:45:53;;;;;;;7.28;3.03;;;;;;;;;;10518236;28;20057;-71
2022/05/20 14:50:58;;;;;;;8.20;2.90;;;;;;;;;;10532115;28;20091;-73
2022/05/20 14:56:02;;;;;;;8.80;2.80;;;;;;;;;;10528594;28;20082;-73
2022/05/20 15:01:08;;;;;;;5.13;2.97;;;;;;;;;;10518089;28;20040;-71
2022/05/20 15:06:19;;;;;;;3.63;2.60;;;;;;;;;;10526843;28;20044;-73
2022/05/20 15:11:24;;;;;;;3.38;2.67;;;;;;;;;;10517744;28;20052;-71
2022/05/20 15:16:28;;;;;;;5.60;3.00;;;;;;;;;;10530953;28;20044;-72
2022/05/20 15:21:34;;;;;;;6.97;3.00;;;;;;;;;;10515272;28;20044;-72
2022/05/20 15:26:39;;;;;;;4.10;2.67;;;;;;;;;;10526803;28;20165;-72
2022/05/20 15:37:07;;;;;;;9.30;3.10;;;;;;;;;;10532211;28;20051;-72
2022/05/20 15:42:11;;;;;;;9.05;3.03;;;;;;;;;;10531614;28;20040;-71
2022/05/20 15:47:16;;;;;;;3.67;2.78;;;;;;;;;;10516989;28;20079;-70
2022/05/20 15:52:22;;;;;;;3.17;2.55;;;;;;;;;;10530010;28;20040;-73
2022/05/20 15:57:26;;;;;;;4.78;3.05;;;;;;;;;;10516378;28;20377;-72
2022/05/20 16:02:30;;;;;;;3.30;2.95;;;;;;;;;;10517709;28;20044;-72
2022/05/20 16:07:33;;;;;;;4.60;3.10;;;;;;;;;;10516036;28;20084;-73
2022/05/20 16:12:36;;;;;;;4.88;3.10;;;;;;;;;;10516572;28;20049;-73
2022/05/20 16:17:39;;;;;;;7.68;3.10;;;;;;;;;;10516006;28;20044;-72
2022/05/20 16:22:43;;;;;;;7.00;2.90;;;;;;;;;;10519843;28;20048;-72
2022/05/20 16:27:46;;;;;;;;;;;;;;;;;;10523142;28;20267;-72
2022/05/20 16:32:51;;;;;;;7.97;3.35;;;;;;;;;;10524681;28;19917;-74
2022/05/20 16:37:53;;;;;;;5.75;3.20;;;;;;;;;;10524456;28;20045;-75
2022/05/20 16:42:56;;;;;;;8.70;3.93;;;;;;;;;;10522870;28;20044;-71
2022/05/20 16:48:03;;;;;;;7.43;3.37;;;;;;;;;;10523469;28;20139;-70
2022/05/20 16:53:06;;;;;;;16.65;3.75;;;;;;;;;;10536727;28;20296;-69
2022/05/20 17:03:30;;;;;;;14.63;3.38;;;;;;;;;;10499753;28;20075;-70
2022/05/20 17:08:33;;;;;;;5.10;3.08;;;;;;;;;;10508366;28;20080;-69
2022/05/20 17:13:36;;;;;;;6.78;3.60;;;;;;;;;;10520660;28;20041;-70
2022/05/20 17:18:40;;;;;;;6.07;3.53;;;;;;;;;;10522508;28;20044;-69
2022/05/20 17:29:03;;;;;;;11.23;4.35;;;;;;;;;;10533884;28;20079;-70
2022/05/20 17:34:06;;;;;;;17.73;5.30;;;;;;;;;;10520277;28;20056;-69
2022/05/20 17:39:09;;;;;;;16.95;5.45;;;;;;;;;;10522177;28;20052;-69
2022/05/20 17:44:14;;;;;;;29.15;6.07;;;;;;;;;;10520747;28;20313;-70
2022/05/20 17:49:19;;;;;;;12.80;4.20;;;;;;;;;;10521219;28;20339;-70
2022/05/20 17:54:22;;;;;;;6.70;3.55;;;;;;;;;;10520642;28;20053;-70
2022/05/20 17:59:25;;;;;;;11.45;4.00;;;;;;;;;;10519597;28;20044;-69
2022/05/20 18:04:29;;;;;;;16.55;4.15;;;;;;;;;;10520971;28;20258;-68
2022/05/20 18:09:32;;;;;;;13.48;4.88;;;;;;;;;;10520426;28;20056;-69
2022/05/20 18:14:35;;;;;;;13.67;4.77;;;;;;;;;;10518340;28;20049;-69
2022/05/20 18:19:41;;;;;;;8.38;4.45;;;;;;;;;;10520011;28;20110;-70
2022/05/20 18:24:45;;;;;;;10.52;4.75;;;;;;;;;;10533550;28;20050;-68
2022/05/20 18:29:48;;;;;;;11.60;5.65;;;;;;;;;;10517260;28;20040;-69
2022/05/20 18:40:12;;;;;;;11.73;4.40;;;;;;;;;;10532749;28;20040;-68
2022/05/20 18:45:16;;;;;;;11.82;4.95;;;;;;;;;;10517860;28;20262;-68
2022/05/20 18:50:23;;;;;;;7.78;4.57;;;;;;;;;;10516661;28;20055;-71
2022/05/20 18:55:28;;;;;;;16.05;4.55;;;;;;;;;;10477050;28;20275;-69
2022/05/20 19:00:35;;;;;;;9.48;4.47;;;;;;;;;;10481554;28;20049;-69
2022/05/20 19:05:40;;;;;;;7.43;4.47;;;;;;;;;;10514989;28;20102;-71
2022/05/20 19:10:43;;;;;;;22.20;5.25;;;;;;;;;;10518073;28;20091;-70
2022/05/20 19:15:46;;;;;;;6.47;4.82;;;;;;;;;;10517129;28;20056;-71
2022/05/20 19:20:50;;;;;;;13.65;5.95;;;;;;;;;;10516480;28;20067;-69
2022/05/20 19:25:52;;;;;;;18.75;6.18;;;;;;;;;;10517060;28;20378;-70
2022/05/20 19:30:55;;;;;;;20.40;7.55;;;;;;;;;;10515880;28;20083;-68
2022/05/20 19:36:00;;;;;;;13.20;7.45;;;;;;;;;;10517166;28;20079;-70
2022/05/20 19:41:02;;;;;;;23.15;7.97;;;;;;;;;;10513932;28;20077;-69
2022/05/20 19:46:04;;;;;;;15.95;6.70;;;;;;;;;;10516919;28;20110;-69
2022/05/20 19:51:10;;;;;;;14.48;6.97;;;;;;;;;;10512694;28;20113;-69
2022/05/20 19:56:13;;;;;;;22.17;8.25;;;;;;;;;;10511269;28;20078;-69
2022/05/20 20:01:15;;;;;;;19.85;8.50;;;;;;;;;;10515820;28;20454;-70
2022/05/20 20:06:20;;;;;;;32.75;14.00;;;;;;;;;;10516452;28;20091;-70
2022/05/20 20:11:22;;;;;;;;;;;;;;;;;;10516083;28;20060;-72
2022/05/20 20:16:25;;;;;;;23.85;9.88;;;;;;;;;;10515714;28;19946;-69
2022/05/20 20:26:49;;;;;;;29.27;13.57;;;;;;;;;;10525597;28;20301;-69
2022/05/20 20:31:52;;;;;;;23.98;11.25;;;;;;;;;;10513069;28;20369;-68
2022/05/20 20:37:33;;;;;;;18.95;10.40;;;;;;;;;;10515485;28;20048;-69
2022/05/20 20:42:36;;;;;;;28.15;13.32;;;;;;;;;;10514297;28;20184;-69
2022/05/20 20:47:39;;;;;;;38.00;18.92;;;;;;;;;;10483686;28;20036;-70
2022/05/20 20:52:42;;;;;;;55.30;19.75;;;;;;;;;;10503966;28;20345;-70
2022/05/20 20:57:45;;;;;;;21.20;10.75;;;;;;;;;;10514759;28;20128;-69
2022/05/20 21:02:48;;;;;;;23.55;9.93;;;;;;;;;;10506408;28;20055;-69
2022/05/20 21:07:55;;;;;;;18.55;9.43;;;;;;;;;;10515726;28;20052;-69
2022/05/20 21:12:59;;;;;;;31.15;12.13;;;;;;;;;;10535695;28;20041;-69
2022/05/20 21:18:02;;;;;;;21.33;10.15;;;;;;;;;;10519470;28;20060;-69
2022/05/20 21:23:05;;;;;;;25.63;10.25;;;;;;;;;;10520734;28;20270;-69
2022/05/20 21:28:08;;;;;;;26.33;9.82;;;;;;;;;;10520793;28;20063;-69
2022/05/20 21:33:10;;;;;;;18.63;9.32;;;;;;;;;;10509093;28;20090;-69
2022/05/20 21:38:14;;;;;;;15.48;8.25;;;;;;;;;;10507226;28;20041;-70
2022/05/20 21:43:17;;;;;;;26.27;8.20;;;;;;;;;;10484863;28;20040;-68
2022/05/20 21:48:19;;;;;;;15.27;7.47;;;;;;;;;;10494403;28;20083;-70
2022/05/20 21:53:23;;;;;;;16.42;8.25;;;;;;;;;;10482435;28;20049;-69
2022/05/20 21:58:26;;;;;;;17.15;9.15;;;;;;;;;;10478404;28;20044;-69
2022/05/20 22:08:51;;;;;;;17.00;9.32;;;;;;;;;;10519314;28;20122;-68
2022/05/20 22:13:54;;;;;;;19.13;9.82;;;;;;;;;;10509622;28;20330;-68
2022/05/20 22:19:00;;;;;;;17.95;10.60;;;;;;;;;;10501084;28;20102;-68
2022/05/20 22:24:04;;;;;;;35.08;15.18;;;;;;;;;;10517842;28;20048;-67
2022/05/20 22:29:06;;;;;;;35.25;14.52;;;;;;;;;;10518270;28;20040;-68
2022/05/20 22:34:08;;;;;;;39.22;16.67;;;;;;;;;;10517803;28;20067;-67
2022/05/20 22:39:12;;;;;;;36.88;20.20;;;;;;;;;;10519800;28;20056;-70
2022/05/20 22:44:14;;;;;;;35.17;19.15;;;;;;;;;;10491508;28;20102;-69
2022/05/20 22:49:16;;;;;;;38.90;21.58;;;;;;;;;;10502615;28;20041;-67
2022/05/20 22:54:20;;;;;;;34.25;19.02;;;;;;;;;;10516266;28;20060;-70
2022/05/20 22:59:22;;;;;;;31.25;19.05;;;;;;;;;;10516892;28;20075;-67
2022/05/20 23:04:25;;;;;;;47.33;22.23;;;;;;;;;;10496651;28;20041;-68
2022/05/20 23:09:29;;;;;;;44.58;22.95;;;;;;;;;;10493146;28;20084;-68
2022/05/20 23:14:31;;;;;;;51.08;24.38;;;;;;;;;;10514507;28;20076;-70
2022/05/20 23:19:34;;;;;;;54.58;22.90;;;;;;;;;;10515794;28;20036;-68
2022/05/20 23:24:38;;;;;;;39.75;22.58;;;;;;;;;;10475548;28;20048;-67
2022/05/20 23:29:41;;;;;;;46.63;23.08;;;;;;;;;;10482319;28;20335;-68
2022/05/20 23:34:43;;;;;;;31.75;16.90;;;;;;;;;;10515148;28;20048;-68
2022/05/20 23:39:47;;;;;;;27.55;16.50;;;;;;;;;;10515406;28;20040;-68
2022/05/20 23:44:49;;;;;;;28.88;16.13;;;;;;;;;;10485476;28;20036;-69
2022/05/20 23:49:51;;;;;;;27.83;15.30;;;;;;;;;;10514055;28;20056;-68
